createdAt,value
2022-10-09T00:01:24.634Z,91.70
2022-10-09T00:03:53.972Z,91.40
2022-10-09T00:06:26.866Z,91.30
2022-10-09T00:08:54.340Z,91.30
2022-10-09T00:11:24.594Z,91.00
2022-10-09T00:13:52.699Z,90.80
2022-10-09T00:16:21.452Z,90.40
2022-10-09T00:18:49.535Z,90.30
2022-10-09T00:21:19.438Z,90.10
2022-10-09T00:23:46.947Z,89.70
2022-10-09T00:26:14.812Z,89.10
2022-10-09T00:28:42.630Z,88.70
2022-10-09T00:31:11.393Z,88.10
2022-10-09T00:33:38.891Z,88.10
2022-10-09T00:36:12.448Z,87.90
2022-10-09T00:38:39.922Z,88.00
2022-10-09T00:41:07.758Z,87.90
2022-10-09T00:43:51.616Z,87.80
2022-10-09T00:46:26.952Z,87.90
2022-10-09T00:49:02.949Z,88.20
2022-10-09T00:51:31.568Z,88.90
2022-10-09T00:53:59.562Z,88.40
2022-10-09T00:56:27.363Z,88.60
2022-10-09T00:58:57.558Z,88.50
2022-10-09T01:01:24.911Z,88.50
2022-10-09T01:03:52.331Z,88.60
2022-10-09T01:06:43.997Z,88.60
2022-10-09T01:09:23.100Z,88.50
2022-10-09T01:12:12.640Z,88.60
2022-10-09T01:14:48.062Z,88.50
2022-10-09T01:17:40.895Z,88.80
2022-10-09T01:20:43.372Z,88.70
2022-10-09T01:23:13.424Z,88.50
2022-10-09T01:25:56.703Z,87.70
2022-10-09T01:28:30.372Z,87.90
2022-10-09T01:31:02.952Z,87.70
2022-10-09T01:33:32.319Z,87.00
2022-10-09T01:36:01.252Z,83.60
2022-10-09T01:38:29.523Z,81.50
2022-10-09T01:40:57.440Z,81.10
2022-10-09T01:43:24.890Z,82.10
2022-10-09T01:45:52.334Z,83.20
2022-10-09T01:48:25.285Z,84.00
2022-10-09T01:50:58.205Z,84.50
2022-10-09T01:53:26.683Z,81.50
2022-10-09T01:56:07.298Z,80.30
2022-10-09T01:58:44.274Z,80.20
2022-10-09T02:01:18.575Z,80.30
2022-10-09T02:03:48.848Z,80.50
2022-10-09T02:06:18.041Z,79.60
2022-10-09T02:08:49.768Z,78.50
2022-10-09T02:11:17.715Z,78.40
2022-10-09T02:13:47.890Z,78.80
2022-10-09T02:16:37.188Z,79.50
2022-10-09T02:19:07.904Z,80.10
2022-10-09T02:21:58.016Z,80.80
2022-10-09T02:24:25.971Z,81.30
2022-10-09T02:26:54.400Z,81.70
2022-10-09T02:29:22.119Z,82.60
2022-10-09T02:31:49.480Z,82.20
2022-10-09T02:34:19.416Z,82.50
2022-10-09T02:36:47.494Z,82.70
2022-10-09T02:39:15.108Z,83.10
2022-10-09T02:41:42.516Z,83.20
2022-10-09T02:44:09.976Z,83.40
2022-10-09T02:46:38.690Z,83.50
2022-10-09T02:49:06.814Z,83.50
2022-10-09T02:51:34.553Z,83.40
2022-10-09T02:54:01.954Z,83.50
2022-10-09T02:56:29.295Z,83.20
2022-10-09T02:58:57.046Z,83.10
2022-10-09T03:01:24.863Z,83.10
2022-10-09T03:03:52.486Z,83.10
2022-10-09T03:06:23.248Z,83.40
2022-10-09T03:08:52.282Z,83.40
2022-10-09T03:11:20.952Z,83.10
2022-10-09T03:13:48.272Z,82.80
2022-10-09T03:16:21.640Z,82.90
2022-10-09T03:18:50.283Z,83.10
2022-10-09T03:21:20.647Z,83.20
2022-10-09T03:23:49.710Z,83.00
2022-10-09T03:26:19.785Z,82.70
2022-10-09T03:28:48.806Z,82.90
2022-10-09T03:31:39.244Z,82.80
2022-10-09T03:34:05.265Z,82.60
2022-10-09T03:36:32.544Z,82.70
2022-10-09T03:38:59.769Z,83.00
2022-10-09T03:41:27.276Z,83.20
2022-10-09T03:43:54.492Z,83.30
2022-10-09T03:46:22.084Z,83.50
2022-10-09T03:48:49.438Z,83.60
2022-10-09T03:51:16.903Z,83.60
2022-10-09T03:53:44.253Z,83.70
2022-10-09T03:56:11.464Z,83.90
2022-10-09T03:58:39.007Z,84.20
2022-10-09T04:01:06.599Z,84.30
2022-10-09T04:03:33.930Z,84.50
2022-10-09T04:06:01.323Z,84.70
2022-10-09T04:08:28.538Z,84.90
2022-10-09T04:11:00.936Z,84.80
2022-10-09T04:13:28.454Z,84.80
2022-10-09T04:15:56.737Z,84.90
2022-10-09T04:18:24.949Z,84.70
2022-10-09T04:20:54.494Z,84.80
2022-10-09T04:23:25.565Z,84.90
2022-10-09T04:25:54.946Z,85.00
2022-10-09T04:28:23.462Z,85.20
2022-10-09T04:30:50.954Z,85.50
2022-10-09T04:33:18.401Z,85.70
2022-10-09T04:35:46.861Z,86.20
2022-10-09T04:38:14.080Z,86.20
2022-10-09T04:40:41.715Z,86.30
2022-10-09T04:43:08.967Z,86.50
2022-10-09T04:45:40.545Z,86.70
2022-10-09T04:48:07.922Z,86.90
2022-10-09T04:50:38.898Z,87.10
2022-10-09T04:53:06.167Z,87.30
2022-10-09T04:55:33.368Z,87.70
2022-10-09T04:58:00.592Z,87.90
2022-10-09T05:00:28.102Z,88.30
2022-10-09T05:02:55.414Z,88.40
2022-10-09T05:05:22.767Z,88.60
2022-10-09T05:07:50.275Z,88.70
2022-10-09T05:10:17.541Z,88.70
2022-10-09T05:12:44.789Z,88.80
2022-10-09T05:15:11.995Z,89.00
2022-10-09T05:17:39.318Z,89.80
2022-10-09T05:20:07.185Z,89.10
2022-10-09T05:22:34.407Z,89.10
2022-10-09T05:25:01.891Z,89.00
2022-10-09T05:27:29.116Z,89.10
2022-10-09T05:29:56.358Z,88.90
2022-10-09T05:32:23.618Z,88.70
2022-10-09T05:34:50.819Z,88.70
2022-10-09T05:37:18.115Z,88.50
2022-10-09T05:39:45.448Z,88.60
2022-10-09T05:42:12.713Z,88.60
2022-10-09T05:44:39.929Z,88.70
2022-10-09T05:47:07.272Z,88.80
2022-10-09T05:49:34.519Z,88.70
2022-10-09T05:52:01.916Z,88.60
2022-10-09T05:54:29.287Z,88.60
2022-10-09T05:56:56.487Z,88.40
2022-10-09T05:59:24.408Z,88.30
2022-10-09T06:01:52.103Z,89.00
2022-10-09T06:04:22.692Z,88.30
2022-10-09T06:06:50.819Z,88.30
2022-10-09T06:09:23.016Z,88.40
2022-10-09T06:11:51.688Z,88.00
2022-10-09T06:14:22.039Z,87.70
2022-10-09T06:16:50.297Z,87.50
2022-10-09T06:19:19.598Z,87.50
2022-10-09T06:21:48.018Z,87.20
2022-10-09T06:24:20.040Z,87.00
2022-10-09T06:26:49.437Z,86.90
2022-10-09T06:29:16.879Z,87.00
2022-10-09T06:31:44.124Z,86.60
2022-10-09T06:34:11.507Z,86.30
2022-10-09T06:36:38.919Z,85.80
2022-10-09T06:39:07.559Z,85.40
2022-10-09T06:41:35.649Z,85.00
2022-10-09T06:44:16.572Z,84.90
2022-10-09T06:46:45.615Z,83.60
2022-10-09T06:49:12.885Z,83.90
2022-10-09T06:51:40.598Z,84.00
2022-10-09T06:54:13.594Z,83.30
2022-10-09T06:56:41.505Z,82.20
2022-10-09T06:59:10.157Z,81.70
2022-10-09T07:01:37.585Z,81.30
2022-10-09T07:04:07.671Z,80.90
2022-10-09T07:06:39.803Z,80.40
2022-10-09T07:09:09.419Z,78.20
2022-10-09T07:11:39.724Z,77.80
2022-10-09T07:14:08.520Z,77.90
2022-10-09T07:16:41.756Z,77.50
2022-10-09T07:19:11.633Z,77.50
2022-10-09T07:21:41.474Z,77.20
2022-10-09T07:24:09.582Z,76.20
2022-10-09T07:26:39.796Z,76.60
2022-10-09T07:29:09.809Z,75.70
2022-10-09T07:31:37.051Z,75.30
2022-10-09T07:34:06.198Z,75.40
2022-10-09T07:36:33.970Z,74.90
2022-10-09T07:39:01.662Z,74.40
2022-10-09T07:41:30.047Z,74.80
2022-10-09T07:43:58.260Z,74.30
2022-10-09T07:46:32.156Z,74.80
2022-10-09T07:49:00.481Z,73.40
2022-10-09T07:51:29.216Z,74.00
2022-10-09T07:53:57.341Z,73.40
2022-10-09T07:56:29.081Z,73.20
2022-10-09T07:59:01.861Z,73.70
2022-10-09T08:01:30.193Z,74.10
2022-10-09T08:04:00.311Z,73.40
2022-10-09T08:06:28.465Z,72.70
2022-10-09T08:08:57.831Z,72.80
2022-10-09T08:11:27.112Z,72.90
2022-10-09T08:13:54.529Z,72.60
2022-10-09T08:16:23.453Z,72.90
2022-10-09T08:18:55.822Z,72.90
2022-10-09T08:21:23.370Z,72.50
2022-10-09T08:23:55.608Z,72.50
2022-10-09T08:26:24.280Z,72.50
2022-10-09T08:28:53.757Z,72.40
2022-10-09T08:31:21.759Z,72.50
2022-10-09T08:33:53.433Z,73.00
2022-10-09T08:36:21.447Z,72.70
2022-10-09T08:38:49.345Z,72.80
2022-10-09T08:41:34.554Z,73.30
2022-10-09T08:44:11.447Z,73.20
2022-10-09T08:46:46.941Z,72.90
2022-10-09T08:49:26.147Z,73.50
2022-10-09T08:51:56.023Z,72.80
2022-10-09T08:54:39.351Z,72.90
2022-10-09T08:57:14.020Z,73.00
2022-10-09T08:59:41.547Z,72.20
2022-10-09T09:02:33.843Z,71.70
2022-10-09T09:05:39.244Z,72.40
2022-10-09T09:08:30.845Z,73.40
2022-10-09T09:11:11.268Z,72.20
2022-10-09T09:14:13.515Z,71.50
2022-10-09T09:17:30.699Z,71.50
2022-10-09T09:20:21.936Z,72.30
2022-10-09T09:22:50.393Z,72.70
2022-10-09T09:25:28.434Z,71.60
2022-10-09T09:28:02.145Z,71.60
2022-10-09T09:30:37.976Z,72.80
2022-10-09T09:33:25.143Z,71.80
2022-10-09T09:36:24.497Z,71.70
2022-10-09T09:39:36.210Z,71.30
2022-10-09T09:41:42.102Z,71.40
2022-10-09T09:44:14.714Z,70.70
2022-10-09T09:46:43.917Z,69.20
2022-10-09T09:49:23.710Z,69.90
2022-10-09T09:51:51.322Z,69.00
2022-10-09T09:54:22.770Z,68.80
2022-10-09T09:59:41.663Z,67.20
2022-10-09T10:02:23.873Z,67.50
2022-10-09T10:04:51.463Z,66.90
2022-10-09T10:07:33.423Z,67.90
2022-10-09T10:10:09.700Z,67.40
2022-10-09T10:12:46.066Z,67.20
2022-10-09T10:15:33.872Z,66.20
2022-10-09T10:18:06.794Z,65.30
2022-10-09T10:20:52.541Z,65.40
2022-10-09T10:23:51.869Z,65.50
2022-10-09T10:26:52.103Z,65.00
2022-10-09T10:29:31.814Z,64.60
2022-10-09T10:32:15.623Z,64.30
2022-10-09T10:34:57.944Z,63.80
2022-10-09T10:37:31.908Z,62.90
2022-10-09T10:40:12.457Z,63.80
2022-10-09T10:42:57.470Z,63.60
2022-10-09T10:45:58.120Z,63.40
2022-10-09T10:48:29.545Z,62.20
2022-10-09T10:51:30.116Z,61.90
2022-10-09T10:54:35.341Z,62.40
2022-10-09T10:57:09.231Z,62.60
2022-10-09T10:59:42.110Z,62.60
2022-10-09T11:02:45.077Z,62.70
2022-10-09T11:05:22.860Z,63.40
2022-10-09T11:08:14.834Z,63.40
2022-10-09T11:11:06.464Z,63.10
2022-10-09T11:13:41.619Z,62.10
2022-10-09T11:16:14.951Z,61.50
2022-10-09T11:18:48.316Z,62.50
2022-10-09T11:21:33.912Z,62.60
2022-10-09T11:24:38.864Z,61.20
2022-10-09T11:27:37.598Z,60.60
2022-10-09T11:30:13.842Z,60.70
2022-10-09T11:32:59.771Z,61.00
2022-10-09T11:35:48.445Z,61.40
2022-10-09T11:38:25.430Z,61.70
2022-10-09T11:40:53.878Z,61.40
2022-10-09T11:43:26.964Z,61.70
2022-10-09T11:46:15.379Z,61.70
2022-10-09T11:48:56.139Z,61.60
2022-10-09T11:51:29.656Z,61.10
2022-10-09T11:53:57.754Z,60.60
2022-10-09T11:56:30.459Z,59.80
2022-10-09T11:59:05.346Z,58.70
2022-10-09T12:01:39.382Z,59.10
2022-10-09T12:04:32.177Z,59.20
2022-10-09T12:07:09.358Z,59.20
2022-10-09T12:09:41.551Z,59.60
2022-10-09T12:12:18.535Z,59.90
2022-10-09T12:14:49.271Z,58.90
2022-10-09T12:17:23.870Z,58.70
2022-10-09T12:19:58.714Z,58.30
2022-10-09T12:22:33.970Z,58.10
2022-10-09T12:25:08.533Z,58.50
2022-10-09T12:27:41.299Z,58.60
2022-10-09T12:30:12.595Z,58.00
2022-10-09T12:33:05.637Z,58.30
2022-10-09T12:35:36.695Z,58.40
2022-10-09T12:38:24.604Z,58.00
2022-10-09T12:40:54.650Z,57.30
2022-10-09T12:43:23.696Z,56.40
2022-10-09T12:45:53.396Z,56.00
2022-10-09T12:48:26.088Z,56.10
2022-10-09T12:50:54.360Z,54.70
2022-10-09T12:53:27.272Z,54.00
2022-10-09T12:56:00.899Z,56.10
2022-10-09T12:58:39.572Z,56.00
2022-10-09T13:01:12.078Z,56.10
2022-10-09T13:03:43.277Z,56.60
2022-10-09T13:06:20.865Z,56.60
2022-10-09T13:09:05.250Z,55.70
2022-10-09T13:11:40.380Z,55.30
2022-10-09T13:14:28.550Z,55.40
2022-10-09T13:16:55.959Z,55.70
2022-10-09T13:19:29.200Z,55.30
2022-10-09T13:22:18.225Z,55.20
2022-10-09T13:24:45.915Z,56.10
2022-10-09T13:27:19.471Z,56.10
2022-10-09T13:29:48.187Z,56.00
2022-10-09T13:32:17.259Z,55.00
2022-10-09T13:34:45.829Z,55.60
2022-10-09T13:37:17.982Z,55.10
2022-10-09T13:39:45.495Z,55.30
2022-10-09T13:42:15.856Z,55.20
2022-10-09T13:44:43.902Z,55.00
2022-10-09T13:47:11.519Z,55.20
2022-10-09T13:49:38.900Z,55.10
2022-10-09T13:52:06.123Z,55.40
2022-10-09T13:54:33.384Z,56.20
2022-10-09T13:57:00.762Z,56.20
2022-10-09T13:59:28.510Z,56.40
2022-10-09T14:01:55.761Z,56.30
2022-10-09T14:04:23.408Z,56.20
2022-10-09T14:06:50.690Z,56.10
2022-10-09T14:09:17.911Z,56.40
2022-10-09T14:11:45.276Z,56.80
2022-10-09T14:14:12.655Z,56.90
2022-10-09T14:16:40.344Z,57.20
2022-10-09T14:19:07.995Z,57.20
2022-10-09T14:21:35.418Z,57.20
2022-10-09T14:24:05.449Z,57.30
2022-10-09T14:26:34.023Z,57.50
2022-10-09T14:29:02.968Z,57.70
2022-10-09T14:31:30.567Z,58.10
2022-10-09T14:33:59.623Z,57.90
2022-10-09T14:36:27.743Z,57.70
2022-10-09T14:38:55.916Z,57.20
2022-10-09T14:41:23.284Z,57.20
2022-10-09T14:43:56.749Z,57.30
2022-10-09T14:46:24.411Z,57.00
2022-10-09T14:48:54.834Z,57.00
2022-10-09T14:51:24.995Z,57.00
2022-10-09T14:53:56.995Z,56.80
2022-10-09T14:56:25.468Z,56.70
2022-10-09T14:58:53.390Z,56.70
2022-10-09T15:01:22.636Z,56.60
2022-10-09T15:03:50.433Z,56.30
2022-10-09T15:06:20.129Z,56.60
2022-10-09T15:08:47.498Z,56.60
2022-10-09T15:11:14.842Z,56.70
2022-10-09T15:13:42.278Z,56.50
2022-10-09T15:16:12.850Z,56.60
2022-10-09T15:18:40.417Z,56.60
2022-10-09T15:21:17.178Z,56.40
2022-10-09T15:23:44.837Z,56.00
2022-10-09T15:26:13.464Z,56.30
2022-10-09T15:28:42.101Z,56.30
2022-10-09T15:31:22.471Z,56.60
2022-10-09T15:33:51.941Z,56.60
2022-10-09T15:36:20.359Z,56.70
2022-10-09T15:38:48.174Z,56.80
2022-10-09T15:41:27.015Z,56.70
2022-10-09T15:43:56.880Z,56.70
2022-10-09T15:46:25.077Z,56.80
2022-10-09T15:48:52.752Z,57.00
2022-10-09T15:51:20.827Z,57.30
2022-10-09T15:53:50.180Z,57.50
2022-10-09T15:56:24.338Z,57.90
2022-10-09T15:58:52.691Z,58.50
2022-10-09T16:01:20.865Z,58.20
2022-10-09T16:03:48.929Z,58.60
2022-10-09T16:06:19.435Z,58.60
2022-10-09T16:08:47.774Z,58.70
2022-10-09T16:11:19.151Z,58.80
2022-10-09T16:13:49.261Z,59.00
2022-10-09T16:16:19.674Z,59.20
2022-10-09T16:18:47.913Z,59.50
2022-10-09T16:21:20.901Z,59.60
2022-10-09T16:23:48.242Z,59.60
2022-10-09T16:26:19.023Z,59.80
2022-10-09T16:28:47.351Z,60.10
2022-10-09T16:31:21.080Z,60.30
2022-10-09T16:33:48.794Z,60.60
2022-10-09T16:36:16.375Z,61.00
2022-10-09T16:38:44.058Z,61.40
2022-10-09T16:41:17.681Z,61.80
2022-10-09T16:43:46.973Z,62.00
2022-10-09T16:46:29.655Z,62.20
2022-10-09T16:48:58.380Z,62.50
2022-10-09T16:51:31.878Z,62.80
2022-10-09T16:54:00.829Z,63.30
2022-10-09T16:56:33.033Z,63.50
2022-10-09T16:59:02.235Z,64.10
2022-10-09T17:01:29.929Z,64.20
2022-10-09T17:03:59.239Z,64.40
2022-10-09T17:06:27.106Z,64.70
2022-10-09T17:08:57.673Z,64.80
2022-10-09T17:11:26.995Z,65.30
2022-10-09T17:13:58.078Z,65.80
2022-10-09T17:16:32.750Z,66.20
2022-10-09T17:19:01.228Z,66.40
2022-10-09T17:21:32.920Z,66.30
2022-10-09T17:24:04.150Z,66.40
2022-10-09T17:26:31.532Z,66.70
2022-10-09T17:28:59.993Z,67.10
2022-10-09T17:31:28.712Z,68.10
2022-10-09T17:34:01.899Z,68.20
2022-10-09T17:36:32.149Z,68.30
2022-10-09T17:39:00.220Z,68.60
2022-10-09T17:41:28.403Z,69.00
2022-10-09T17:43:56.843Z,69.30
2022-10-09T17:46:26.320Z,69.60
2022-10-09T17:48:56.095Z,69.60
2022-10-09T17:51:39.497Z,70.10
2022-10-09T17:54:11.980Z,70.00
2022-10-09T17:56:40.260Z,70.30
2022-10-09T17:59:08.409Z,70.50
2022-10-09T18:01:35.924Z,70.60
2022-10-09T18:04:03.879Z,70.90
2022-10-09T18:06:33.934Z,71.30
2022-10-09T18:09:02.221Z,71.30
2022-10-09T18:11:30.131Z,71.50
2022-10-09T18:13:58.078Z,71.60
2022-10-09T18:16:35.365Z,71.70
2022-10-09T18:19:12.432Z,71.70
2022-10-09T18:21:43.172Z,71.60
2022-10-09T18:24:11.591Z,71.70
2022-10-09T18:26:39.614Z,71.70
2022-10-09T18:29:06.937Z,71.80
2022-10-09T18:31:34.423Z,72.00
2022-10-09T18:34:02.133Z,72.00
2022-10-09T18:36:34.953Z,71.90
2022-10-09T18:39:09.407Z,72.10
2022-10-09T18:41:37.956Z,72.30
2022-10-09T18:44:07.769Z,72.40
2022-10-09T18:46:40.907Z,72.50
2022-10-09T18:49:12.220Z,72.30
2022-10-09T18:51:41.717Z,73.00
2022-10-09T18:54:13.230Z,72.50
2022-10-09T18:56:43.166Z,73.30
2022-10-09T18:59:15.045Z,72.80
2022-10-09T19:01:42.448Z,73.10
2022-10-09T19:04:09.795Z,73.20
2022-10-09T19:06:37.141Z,73.30
2022-10-09T19:09:04.845Z,73.30
2022-10-09T19:11:33.578Z,73.30
2022-10-09T19:14:01.059Z,73.40
2022-10-09T19:16:30.342Z,73.20
2022-10-09T19:18:59.440Z,73.20
2022-10-09T19:21:26.800Z,73.40
2022-10-09T19:23:54.816Z,73.60
2022-10-09T19:26:23.130Z,73.80
2022-10-09T19:28:50.444Z,74.20
2022-10-09T19:31:17.794Z,74.40
2022-10-09T19:33:45.364Z,74.70
2022-10-09T19:36:14.434Z,74.80
2022-10-09T19:38:42.057Z,75.00
2022-10-09T19:41:15.541Z,75.00
2022-10-09T19:43:43.229Z,75.50
2022-10-09T19:46:14.198Z,75.80
2022-10-09T19:48:41.490Z,75.90
2022-10-09T19:51:12.998Z,75.90
2022-10-09T19:53:40.712Z,75.90
2022-10-09T19:56:20.084Z,75.90
2022-10-09T19:58:48.666Z,76.10
2022-10-09T20:01:18.397Z,76.10
2022-10-09T20:03:46.420Z,76.40
2022-10-09T20:06:14.522Z,76.70
2022-10-09T20:08:42.778Z,76.80
2022-10-09T20:11:11.436Z,76.90
2022-10-09T20:13:40.470Z,76.60
2022-10-09T20:16:11.503Z,76.40
2022-10-09T20:18:42.078Z,76.50
2022-10-09T20:21:10.978Z,76.70
2022-10-09T20:23:38.713Z,77.00
2022-10-09T20:26:09.506Z,77.50
2022-10-09T20:28:38.183Z,78.30
2022-10-09T20:31:08.042Z,77.90
2022-10-09T20:33:37.318Z,78.00
2022-10-09T20:36:06.201Z,78.00
2022-10-09T20:38:33.808Z,78.20
2022-10-09T20:41:07.541Z,78.40
2022-10-09T20:43:35.659Z,78.80
2022-10-09T20:46:11.425Z,79.00
2022-10-09T20:48:39.236Z,79.10
2022-10-09T20:51:06.626Z,79.20
2022-10-09T20:53:33.880Z,79.50
2022-10-09T20:56:03.072Z,79.70
2022-10-09T20:58:30.654Z,79.70
2022-10-09T21:00:58.250Z,79.60
2022-10-09T21:03:25.731Z,79.80
2022-10-09T21:05:53.154Z,80.10
2022-10-09T21:08:20.563Z,80.40
2022-10-09T21:10:49.566Z,80.60
2022-10-09T21:13:17.193Z,80.60
2022-10-09T21:15:46.335Z,80.50
2022-10-09T21:18:15.232Z,80.70
2022-10-09T21:20:44.416Z,80.80
2022-10-09T21:23:13.630Z,80.80
2022-10-09T21:25:50.870Z,81.00
2022-10-09T21:28:20.043Z,81.20
2022-10-09T21:30:47.334Z,81.40
2022-10-09T21:33:15.626Z,81.70
2022-10-09T21:35:45.941Z,81.70
2022-10-09T21:38:15.612Z,82.00
2022-10-09T21:40:43.232Z,82.20
2022-10-09T21:43:10.816Z,82.30
2022-10-09T21:45:39.905Z,83.20
2022-10-09T21:48:07.636Z,82.80
2022-10-09T21:50:36.395Z,82.80
2022-10-09T21:53:04.083Z,82.90
2022-10-09T21:55:31.323Z,83.20
2022-10-09T21:57:58.575Z,83.50
2022-10-09T22:00:25.807Z,83.70
2022-10-09T22:02:53.421Z,83.70
2022-10-09T22:05:20.750Z,83.80
2022-10-09T22:07:47.987Z,83.90
2022-10-09T22:10:15.338Z,83.90
2022-10-09T22:12:42.698Z,83.90
2022-10-09T22:15:10.423Z,83.90
2022-10-09T22:17:37.664Z,84.20
2022-10-09T22:20:05.298Z,84.30
2022-10-09T22:22:32.623Z,84.50
2022-10-09T22:25:00.355Z,84.50
2022-10-09T22:27:28.321Z,84.40
2022-10-09T22:29:55.681Z,84.40
2022-10-09T22:32:23.024Z,84.50
2022-10-09T22:34:52.006Z,84.80
2022-10-09T22:37:19.354Z,85.00
2022-10-09T22:39:47.037Z,85.20
2022-10-09T22:42:14.428Z,85.30
2022-10-09T22:44:41.638Z,85.30
2022-10-09T22:47:08.975Z,85.20
2022-10-09T22:49:36.223Z,85.30
2022-10-09T22:52:03.720Z,85.10
2022-10-09T22:54:30.921Z,85.20
2022-10-09T22:56:58.185Z,85.40
2022-10-09T22:59:25.459Z,85.50
2022-10-09T23:01:58.484Z,85.50
2022-10-09T23:04:26.012Z,85.40
2022-10-09T23:06:58.463Z,85.20
2022-10-09T23:09:28.683Z,85.30
2022-10-09T23:11:57.088Z,85.30
2022-10-09T23:14:25.715Z,85.30
2022-10-09T23:16:53.348Z,85.30
2022-10-09T23:19:20.567Z,85.20
2022-10-09T23:21:48.065Z,85.20
2022-10-09T23:24:17.507Z,85.50
2022-10-09T23:26:46.567Z,84.60
2022-10-09T23:29:16.530Z,84.80
2022-10-09T23:31:44.430Z,84.90
2022-10-09T23:34:11.880Z,85.00
2022-10-09T23:36:39.469Z,85.90
2022-10-09T23:39:07.247Z,85.20
2022-10-09T23:41:35.095Z,85.20
2022-10-09T23:44:02.589Z,85.40
2022-10-09T23:46:33.737Z,85.70
2022-10-09T23:49:01.546Z,85.90
2022-10-09T23:51:29.684Z,85.90
2022-10-09T23:53:58.295Z,85.80
2022-10-09T23:56:31.635Z,85.90
2022-10-09T23:59:00.588Z,86.00
